Welcome to Northern Hawkes Bay. New Zealand.
PWS Header
      nz Flag



Hit Counter


W3C Valid W3C Valid logo


    Wairoa

Select any of the Stations below to visit their websites.










Historic Data from Weather Underground
Select the location of interest below. Wairoa is the default. Please have patience, this Data is slow to load in.
Northern Hawkes Bay Historical Data
Daily Summary for January 13, 2017 Units:  English    Metric   Both
« Previous Day
Next Day »
Daily Weekly Monthly Yearly Custom
  High: Low: Average:
Temperature: 79.2 °F 59.7 °F 71.4 °F
Dew Point: 62.2 °F 47.3 °F 56.8 °F
Humidity: 88% 33% 61%
Wind Speed: 12.1mph 0mph 4.5mph
Wind Gust: 17.4mph - -
Wind- - SSW
Pressure: 29.8 in 29.6 in -
Precipitation: 0 in    
Historical Graphs
 
 
Tabular Data for January 13, 2017
Time Temperature Dew Point Pressure Wind Wind Speed Wind Gust Humidity Rainfall Rate (Hourly) solar
00:03 71.4 °F 57.7 °F 29.6 in North 9.8 mph 17.4 mph 62% 0 in 0 W/m2
00:08 71.4 °F 57.7 °F 29.6 in North 7.6 mph 17.4 mph 62% 0 in 0 W/m2
00:13 71.4 °F 57.7 °F 29.6 in North 5.4 mph 17.4 mph 62% 0 in 0 W/m2
00:18 71.2 °F 57.9 °F 29.6 in North 7.6 mph 15.9 mph 63% 0 in 0 W/m2
00:23 71.4 °F 58.3 °F 29.6 in North 9.2 mph 13.6 mph 63% 0 in 0 W/m2
00:28 71.4 °F 58.3 °F 29.6 in North 6 mph 16.8 mph 63% 0 in 0 W/m2
00:33 71.4 °F 58.3 °F 29.6 in North 9.8 mph 16.8 mph 63% 0 in 0 W/m2
00:38 71.4 °F 58.3 °F 29.6 in North 7.6 mph 13.6 mph 63% 0 in 0 W/m2
00:43 71.4 °F 58.3 °F 29.6 in North 12.1 mph 15.9 mph 63% 0 in 0 W/m2
00:48 71.6 °F 57.9 °F 29.6 in NNW 7.6 mph 15.9 mph 62% 0 in 0 W/m2
00:53 71.6 °F 57.9 °F 29.6 in NNW 4.5 mph 15.9 mph 62% 0 in 0 W/m2
00:58 71.6 °F 57.9 °F 29.6 in North 9.2 mph 14.5 mph 62% 0 in 0 W/m2
01:03 71.6 °F 57.9 °F 29.6 in North 5.4 mph 15.2 mph 62% 0 in 0 W/m2
01:08 71.6 °F 57.9 °F 29.6 in North 7.6 mph 15.2 mph 62% 0 in 0 W/m2
01:13 71.6 °F 57.9 °F 29.6 in North 7.6 mph 16.8 mph 62% 0 in 0 W/m2
01:18 71.6 °F 57.9 °F 29.6 in NNW 3.1 mph 16.8 mph 62% 0 in 0 W/m2
01:23 71.6 °F 57.9 °F 29.6 in NNW 4.5 mph 15.2 mph 62% 0 in 0 W/m2
01:28 71.6 °F 57.9 °F 29.6 in NW 7.6 mph 8.3 mph 62% 0 in 0 W/m2
01:33 71.6 °F 57.9 °F 29.6 in NNW 3.1 mph 11.4 mph 62% 0 in 0 W/m2
01:38 71.4 °F 58.6 °F 29.6 in NNW 5.4 mph 11.4 mph 64% 0 in 0 W/m2
01:43 71.2 °F 58.5 °F 29.6 in NNW 4.5 mph 8.3 mph 64% 0 in 0 W/m2
01:48 71.2 °F 58.5 °F 29.6 in NNW 6 mph 9.8 mph 64% 0 in 0 W/m2
01:53 71.4 °F 58.6 °F 29.6 in NNW 4.5 mph 9.8 mph 64% 0 in 0 W/m2
01:58 71.6 °F 58.5 °F 29.6 in NW 3.1 mph 9.8 mph 63% 0 in 0 W/m2
02:03 71.2 °F 59.4 °F 29.6 in WNW 3.1 mph 8.3 mph 66% 0 in 0 W/m2
02:08 70.5 °F 59.9 °F 29.6 in NNW 4.5 mph 6.9 mph 69% 0 in 0 W/m2
02:13 70.3 °F 59.7 °F 29.6 in North 3.1 mph 9.2 mph 69% 0 in 0 W/m2
02:18 70.5 °F 59.5 °F 29.6 in North 3.1 mph 9.2 mph 68% 0 in 0 W/m2
02:23 70.5 °F 59.5 °F 29.6 in NNW 2.2 mph 8.3 mph 68% 0 in 0 W/m2
02:28 70.3 °F 59.7 °F 29.6 in NNW 2.2 mph 4.5 mph 69% 0 in 0 W/m2
02:33 70.3 °F 59.7 °F 29.6 in NW 3.8 mph 6.9 mph 69% 0 in 0 W/m2
02:38 70.2 °F 59.5 °F 29.6 in NNW 6 mph 8.3 mph 69% 0 in 0 W/m2
02:43 70 °F 59.7 °F 29.6 in NNW 5.4 mph 9.2 mph 70% 0 in 0 W/m2
02:48 70 °F 59.7 °F 29.6 in NNW 4.5 mph 10.7 mph 70% 0 in 0 W/m2
02:53 69.8 °F 59.5 °F 29.6 in NNW 3.1 mph 10.7 mph 70% 0 in 0 W/m2
02:58 69.8 °F 59.5 °F 29.6 in NNW 4.5 mph 8.3 mph 70% 0 in 0 W/m2
03:03 69.8 °F 59.2 °F 29.6 in NNE 2.2 mph 6 mph 69% 0 in 0 W/m2
03:08 69.6 °F 59.7 °F 29.6 in North 2.2 mph 6 mph 71% 0 in 0 W/m2
03:13 69.3 °F 59.9 °F 29.6 in North 1.6 mph 4.5 mph 72% 0 in 0 W/m2
03:18 69.4 °F 60.1 °F 29.6 in NNW 7.6 mph 13 mph 72% 0 in 0 W/m2
03:23 70.3 °F 59.4 °F 29.6 in NNW 7.6 mph 13 mph 68% 0 in 0 W/m2
03:29 70.5 °F 59.2 °F 29.6 in NNW 7.6 mph 14.5 mph 67% 0 in 0 W/m2
03:34 70.9 °F 59.4 °F 29.6 in NNW 7.6 mph 14.5 mph 67% 0 in 0 W/m2
03:39 70.9 °F 59.4 °F 29.6 in NNW 8.3 mph 13.6 mph 67% 0 in 0 W/m2
03:44 70.9 °F 59.4 °F 29.6 in NNW 11.4 mph 15.2 mph 67% 0 in 0 W/m2
03:49 70.9 °F 59.4 °F 29.6 in NW 9.2 mph 15.2 mph 67% 0 in 0 W/m2
03:54 70.9 °F 59.4 °F 29.6 in NNW 7.6 mph 15.2 mph 67% 0 in 0 W/m2
03:59 70.9 °F 59.4 °F 29.6 in NNW 9.2 mph 13 mph 67% 0 in 0 W/m2
04:04 70.9 °F 59.4 °F 29.6 in NNW 6.9 mph 13 mph 67% 0 in 0 W/m2
04:09 70.9 °F 59 °F 29.6 in NNW 6 mph 13 mph 66% 0 in 0 W/m2
04:14 71.1 °F 59.2 °F 29.6 in NNW 8.3 mph 12.1 mph 66% 0 in 0 W/m2
04:19 71.2 °F 59.4 °F 29.6 in NW 5.4 mph 11.4 mph 66% 0 in 0 W/m2
04:24 71.1 °F 59.2 °F 29.6 in NW 6.9 mph 11.4 mph 66% 0 in 0 W/m2
04:29 70.9 °F 59.4 °F 29.6 in North 5.4 mph 11.4 mph 67% 0 in 0 W/m2
04:34 70.9 °F 59.4 °F 29.6 in North 6.9 mph 11.4 mph 67% 0 in 0 W/m2
04:39 70.9 °F 59 °F 29.6 in North 3.1 mph 12.1 mph 66% 0 in 0 W/m2
04:44 70.9 °F 59 °F 29.6 in North 3.8 mph 12.1 mph 66% 0 in 0 W/m2
04:49 71.1 °F 59.2 °F 29.6 in North 4.5 mph 9.8 mph 66% 0 in 0 W/m2
04:54 71.1 °F 59.2 °F 29.6 in North 5.4 mph 13.6 mph 66% 0 in 0 W/m2
04:59 71.2 °F 59.4 °F 29.6 in NNW 7.6 mph 13.6 mph 66% 0 in 0 W/m2
05:04 71.4 °F 59.5 °F 29.6 in NNW 6.9 mph 12.1 mph 66% 0 in 0 W/m2
05:09 71.4 °F 59.5 °F 29.6 in NNW 3.8 mph 12.1 mph 66% 0 in 0 W/m2
05:14 71.2 °F 59.4 °F 29.6 in NNW 7.6 mph 12.1 mph 66% 0 in 0 W/m2
05:19 71.2 °F 59.4 °F 29.6 in North 4.5 mph 12.1 mph 66% 0 in 0 W/m2
05:24 71.2 °F 59.4 °F 29.6 in North 9.8 mph 13.6 mph 66% 0 in 0 W/m2
05:29 71.2 °F 59.4 °F 29.6 in NNW 5.4 mph 13.6 mph 66% 0 in 0 W/m2
05:34 71.1 °F 59.2 °F 29.6 in NNW 5.4 mph 13.6 mph 66% 0 in 0 W/m2
05:39 71.1 °F 59.2 °F 29.6 in NW 3.8 mph 11.4 mph 66% 0 in 0 W/m2
05:44 71.1 °F 59.2 °F 29.6 in NW 5.4 mph 10.7 mph 66% 0 in 0 W/m2
05:49 71.1 °F 59.2 °F 29.6 in NNW 3.8 mph 9.8 mph 66% 0 in 0 W/m2
05:54 70.9 °F 59 °F 29.6 in NNW 4.5 mph 9.8 mph 66% 0 in 0 W/m2
05:59 70.7 °F 59.2 °F 29.6 in NNW 3.1 mph 7.6 mph 67% 0 in 0 W/m2
06:05 70.5 °F 59.2 °F 29.6 in North 3.1 mph 6.9 mph 67% 0 in 3 W/m2
06:10 70.3 °F 58.8 °F 29.6 in North 3.8 mph 6 mph 67% 0 in 6 W/m2
06:15 70.2 °F 58.6 °F 29.6 in North 1.6 mph 6 mph 67% 0 in 10 W/m2
06:20 70 °F 58.5 °F 29.6 in NNE 1.6 mph 5.4 mph 67% 0 in 14 W/m2
06:25 70 °F 59 °F 29.6 in Calm   5.4 mph 68% 0 in 19 W/m2
06:30 70 °F 58.5 °F 29.6 in North 0.7 mph 3.1 mph 67% 0 in 25 W/m2
06:35 70.2 °F 59.2 °F 29.6 in NNE 0.7 mph 6 mph 68% 0 in 31 W/m2
06:40 70.2 °F 59.2 °F 29.6 in NNE 0.7 mph 6 mph 68% 0 in 36 W/m2
06:45 70 °F 59 °F 29.6 in NNE 2.2 mph 4.5 mph 68% 0 in 42 W/m2
06:50 70.3 °F 59.4 °F 29.6 in NNE 0.7 mph 4.5 mph 68% 0 in 51 W/m2
06:55 70.5 °F 59.5 °F 29.6 in NNE 2.2 mph 4.5 mph 68% 0 in 54 W/m2
07:00 70.5 °F 59.5 °F 29.6 in NNE 3.1 mph 5.4 mph 68% 0 in 65 W/m2
07:05 70.5 °F 59.5 °F 29.6 in NNE 3.1 mph 6 mph 68% 0 in 70 W/m2
07:10 70.7 °F 59.5 °F 29.6 in NNE 1.6 mph 6 mph 68% 0 in 84 W/m2
07:15 71.1 °F 60.1 °F 29.6 in NNE 2.2 mph 5.4 mph 68% 0 in 94 W/m2
07:20 71.4 °F 59.9 °F 29.6 in NNE 3.1 mph 5.4 mph 67% 0 in 92 W/m2
07:25 71.4 °F 60.3 °F 29.6 in North 1.6 mph 5.4 mph 68% 0 in 99 W/m2
07:30 71.6 °F 59.7 °F 29.6 in North 2.2 mph 6 mph 66% 0 in 100 W/m2
07:35 71.8 °F 59.7 °F 29.6 in NNE 3.8 mph 6 mph 66% 0 in 110 W/m2
07:40 71.8 °F 60.3 °F 29.6 in NNE 0.7 mph 6 mph 67% 0 in 104 W/m2
07:45 71.8 °F 60.6 °F 29.6 in North 3.1 mph 5.4 mph 68% 0 in 98 W/m2
07:50 72 °F 61 °F 29.6 in North 2.2 mph 4.5 mph 68% 0 in 102 W/m2
07:55 72.3 °F 60.8 °F 29.6 in North 3.1 mph 5.4 mph 67% 0 in 113 W/m2
08:00 72.5 °F 61 °F 29.6 in North 2.2 mph 5.4 mph 67% 0 in 118 W/m2
08:05 72.9 °F 61 °F 29.6 in North 2.2 mph 4.5 mph 66% 0 in 128 W/m2
08:10 73.2 °F 61.2 °F 29.7 in North 0.7 mph 4.5 mph 66% 0 in 136 W/m2
08:15 73.9 °F 61.9 °F 29.7 in NW 3.1 mph 3.8 mph 66% 0 in 164 W/m2
08:20 74.1 °F 62.1 °F 29.7 in West 2.2 mph 5.4 mph 66% 0 in 117 W/m2
08:25 73.4 °F 62.2 °F 29.7 in WSW 8.3 mph 13.6 mph 68% 0 in 220 W/m2
08:30 71.2 °F 62.2 °F 29.7 in SW 8.3 mph 13.6 mph 73% 0 in 254 W/m2
08:35 70.5 °F 61.5 °F 29.7 in SW 3.8 mph 13.6 mph 73% 0 in 187 W/m2
08:40 70.3 °F 61.3 °F 29.7 in SW 4.5 mph 10.7 mph 73% 0 in 177 W/m2
08:45 70.2 °F 61.2 °F 29.7 in SW 2.2 mph 9.8 mph 73% 0 in 193 W/m2
08:50 70.5 °F 61.5 °F 29.7 in SSW 4.5 mph 9.8 mph 73% 0 in 257 W/m2
08:55 70.5 °F 61.5 °F 29.7 in SSW 10.7 mph 13.6 mph 73% 0 in 194 W/m2
09:00 69.8 °F 60.8 °F 29.7 in SSW 8.3 mph 13.6 mph 73% 0 in 154 W/m2
09:05 69.3 °F 60.6 °F 29.7 in SSW 4.5 mph 13 mph 74% 0 in 380 W/m2
09:10 69.8 °F 61.2 °F 29.7 in SW 6.9 mph 11.4 mph 74% 0 in 185 W/m2
09:15 69.4 °F 60.4 °F 29.7 in SW 8.3 mph 14.5 mph 73% 0 in 373 W/m2
09:20 69.6 °F 60.6 °F 29.7 in SW 9.2 mph 14.5 mph 73% 0 in 315 W/m2
09:25 69.8 °F 60.1 °F 29.7 in SSW 7.6 mph 14.5 mph 71% 0 in 234 W/m2
09:30 70.2 °F 59.2 °F 29.7 in SSW 6.9 mph 14.5 mph 68% 0 in 201 W/m2
09:35 70 °F 57.4 °F 29.7 in SW 6.9 mph 14.5 mph 64% 0 in 249 W/m2
09:40 70.3 °F 57.6 °F 29.7 in SW 6 mph 14.5 mph 64% 0 in 211 W/m2
09:45 70.3 °F 58.5 °F 29.7 in SW 3.8 mph 12.1 mph 66% 0 in 343 W/m2
09:50 71.2 °F 57.6 °F 29.7 in SW 8.3 mph 11.4 mph 62% 0 in 315 W/m2
09:56 71.2 °F 54.3 °F 29.7 in SSW 6.9 mph 13 mph 55% 0 in 415 W/m2
10:01 71.6 °F 53.1 °F 29.7 in SSW 7.6 mph 13 mph 52% 0 in 575 W/m2
10:06 71.6 °F 53.6 °F 29.7 in SW 10.7 mph 16.8 mph 53% 0 in 519 W/m2
10:11 71.4 °F 53.4 °F 29.7 in SW 12.1 mph 16.8 mph 53% 0 in 460 W/m2
10:16 71.1 °F 53.6 °F 29.7 in SW 6.9 mph 15.9 mph 54% 0 in 235 W/m2
10:21 70.9 °F 52.3 °F 29.7 in SW 6.9 mph 15.9 mph 52% 0 in 265 W/m2
10:26 70.5 °F 51.4 °F 29.7 in WSW 7.6 mph 14.5 mph 51% 0 in 552 W/m2
10:31 70.9 °F 50.7 °F 29.7 in SW 7.6 mph 13 mph 49% 0 in 288 W/m2
10:36 71.2 °F 49.5 °F 29.7 in SSW 9.2 mph 13.6 mph 46% 0 in 441 W/m2
10:41 71.6 °F 49.8 °F 29.7 in SW 9.2 mph 13.6 mph 46% 0 in 432 W/m2
10:46 71.1 °F 49.8 °F 29.7 in SW 5.4 mph 13.6 mph 47% 0 in 585 W/m2
10:51 72 °F 48.9 °F 29.7 in SW 9.8 mph 13 mph 44% 0 in 864 W/m2
10:56 72.7 °F 48.9 °F 29.7 in SW 7.6 mph 13 mph 43% 0 in 953 W/m2
11:01 73.6 °F 51.1 °F 29.7 in SW 10.7 mph 13 mph 45% 0 in 765 W/m2
11:06 73.4 °F 48.9 °F 29.7 in SSW 6 mph 13 mph 42% 0 in 645 W/m2
11:11 73.8 °F 49.8 °F 29.7 in SW 3.8 mph 13 mph 43% 0 in 850 W/m2
11:16 73.9 °F 49.5 °F 29.7 in SW 5.4 mph 10.7 mph 42% 0 in 963 W/m2
11:17 74.1 °F 50.2 °F 29.7 in SW 7.6 mph 10.7 mph 43% 0 in 350 W/m2
11:22 74.1 °F 50.2 °F 29.7 in SW 6 mph 10.7 mph 43% 0 in 816 W/m2
11:27 74.5 °F 49.8 °F 29.7 in SW 7.6 mph 13 mph 42% 0 in 751 W/m2
11:32 73.8 °F 50.5 °F 29.7 in SSW 8.3 mph 13 mph 44% 0 in 544 W/m2
11:37 74.3 °F 51.6 °F 29.7 in South 4.5 mph 11.4 mph 45% 0 in 752 W/m2
11:43 75.2 °F 51.8 °F 29.7 in SSW 6 mph 12.1 mph 44% 0 in 842 W/m2
11:48 75 °F 52.3 °F 29.7 in SSW 3.1 mph 12.1 mph 45% 0 in 989 W/m2
11:53 75.7 °F 51.6 °F 29.7 in South 8.3 mph 10.7 mph 43% 0 in 628 W/m2
11:58 75.4 °F 51.4 °F 29.7 in South 4.5 mph 10.7 mph 43% 0 in 1120 W/m2
12:03 75.6 °F 52.2 °F 29.7 in South 1.6 mph 10.7 mph 44% 0 in 1076 W/m2
12:08 77 °F 53.4 °F 29.7 in South 1.6 mph 9.8 mph 44% 0 in 1050 W/m2
12:13 78.4 °F 53.4 °F 29.7 in SSE 2.2 mph 7.6 mph 42% 0 in 617 W/m2
12:18 75.9 °F 53.8 °F 29.7 in SSE 7.6 mph 11.4 mph 46% 0 in 881 W/m2
12:23 74.1 °F 53.8 °F 29.7 in South 6.9 mph 12.1 mph 49% 0 in 892 W/m2
12:28 74.8 °F 55 °F 29.7 in South 5.4 mph 12.1 mph 50% 0 in 901 W/m2
12:33 74.5 °F 54.1 °F 29.7 in South 6.9 mph 12.1 mph 49% 0 in 875 W/m2
12:38 74.5 °F 54.1 °F 29.7 in South 6.9 mph 11.4 mph 49% 0 in 810 W/m2
12:43 73.8 °F 52.9 °F 29.7 in South 6.9 mph 12.1 mph 48% 0 in 743 W/m2
12:48 73 °F 53.2 °F 29.7 in South 7.6 mph 12.1 mph 50% 0 in 687 W/m2
12:53 73.6 °F 53.8 °F 29.7 in South 9.2 mph 12.1 mph 50% 0 in 773 W/m2
12:58 73.4 °F 55.2 °F 29.7 in South 5.4 mph 12.1 mph 53% 0 in 942 W/m2
13:03 73.9 °F 54.1 °F 29.7 in SSE 5.4 mph 12.1 mph 50% 0 in 649 W/m2
13:08 74.3 °F 54 °F 29.7 in SSE 3.8 mph 12.1 mph 49% 0 in 884 W/m2
13:13 74.1 °F 54.3 °F 29.7 in SE 4.5 mph 11.4 mph 50% 0 in 826 W/m2
13:19 73.9 °F 55.2 °F 29.7 in SSE 6.9 mph 11.4 mph 52% 0 in 977 W/m2
13:24 73 °F 54 °F 29.7 in SSE 6 mph 15.2 mph 51% 0 in 674 W/m2
13:29 73.8 °F 56.7 °F 29.7 in SSE 6.9 mph 15.2 mph 55% 0 in 958 W/m2
13:33 73.6 °F 52.7 °F 29.7 in SE 8.3 mph 13 mph 48% 0 in 894 W/m2
13:38 73.9 °F 53.1 °F 29.7 in ESE 4.5 mph 13 mph 48% 0 in 928 W/m2
13:43 75.7 °F 52.3 °F 29.6 in ESE 7.6 mph 13.6 mph 44% 0 in 932 W/m2
13:48 75.2 °F 52.3 °F 29.6 in East 3.1 mph 13.6 mph 45% 0 in 926 W/m2
13:53 76.5 °F 53.1 °F 29.6 in ENE 5.4 mph 11.4 mph 44% 0 in 930 W/m2
13:58 76.5 °F 53.1 °F 29.6 in East 3.1 mph 9.2 mph 44% 0 in 924 W/m2
14:03 77.2 °F 53.1 °F 29.7 in ESE 8.3 mph 13.6 mph 43% 0 in 921 W/m2
14:08 76.1 °F 50.7 °F 29.7 in SSE 3.8 mph 13.6 mph 41% 0 in 908 W/m2
14:13 77.2 °F 51.1 °F 29.7 in SSE 5.4 mph 13.6 mph 40% 0 in 904 W/m2
14:18 77.5 °F 50 °F 29.7 in SSE 3.8 mph 8.3 mph 38% 0 in 903 W/m2
14:23 77 °F 50.9 °F 29.7 in SSE 6.9 mph 10.7 mph 40% 0 in 894 W/m2
14:28 76.8 °F 52 °F 29.7 in SSE 8.3 mph 11.4 mph 42% 0 in 882 W/m2
14:33 76.8 °F 52 °F 29.7 in SSE 4.5 mph 12.1 mph 42% 0 in 873 W/m2
14:38 77.5 °F 51.3 °F 29.7 in SSE 4.5 mph 12.1 mph 40% 0 in 869 W/m2
14:43 77.2 °F 51.1 °F 29.7 in SSE 5.4 mph 12.1 mph 40% 0 in 860 W/m2
14:48 76.8 °F 53.2 °F 29.7 in SSE 7.6 mph 12.1 mph 44% 0 in 851 W/m2
14:53 76.3 °F 56.3 °F 29.7 in South 4.5 mph 13 mph 50% 0 in 834 W/m2
14:58 75.7 °F 57.9 °F 29.7 in South 5.4 mph 13 mph 54% 0 in 822 W/m2
15:03 74.8 °F 56.7 °F 29.7 in SE 4.5 mph 17.4 mph 53% 0 in 811 W/m2
15:08 76.3 °F 54.7 °F 29.7 in SE 3.8 mph 17.4 mph 47% 0 in 810 W/m2
15:13 77.5 °F 54 °F 29.7 in SE 3.1 mph 8.3 mph 44% 0 in 807 W/m2
15:18 78.1 °F 51.1 °F 29.7 in SE 5.4 mph 7.6 mph 39% 0 in 800 W/m2
15:23 77.4 °F 48.4 °F 29.7 in ESE 5.4 mph 8.3 mph 36% 0 in 782 W/m2
15:28 77.9 °F 49.6 °F 29.7 in ESE 4.5 mph 8.3 mph 37% 0 in 772 W/m2
15:33 78.8 °F 47.3 °F 29.7 in SE 5.4 mph 10.7 mph 33% 0 in 777 W/m2
15:38 78.4 °F 47.8 °F 29.7 in SE 3.1 mph 10.7 mph 34% 0 in 744 W/m2
15:43 78.6 °F 48.7 °F 29.7 in SE 5.4 mph 9.8 mph 35% 0 in 746 W/m2
15:48 78.8 °F 47.3 °F 29.7 in SE 5.4 mph 9.8 mph 33% 0 in 730 W/m2
15:53 78.8 °F 47.3 °F 29.7 in ESE 5.4 mph 9.8 mph 33% 0 in 721 W/m2
15:58 78.3 °F 49.3 °F 29.7 in ESE 3.1 mph 12.1 mph 36% 0 in 703 W/m2
16:03 78.4 °F 48.6 °F 29.7 in ESE 3.8 mph 12.1 mph 35% 0 in 696 W/m2
16:08 79.2 °F 50.7 °F 29.7 in ESE 7.6 mph 11.4 mph 37% 0 in 687 W/m2
16:13 78.4 °F 54.1 °F 29.7 in SSE 6.9 mph 12.1 mph 43% 0 in 671 W/m2
16:18 77.7 °F 54.7 °F 29.7 in SE 4.5 mph 12.1 mph 45% 0 in 652 W/m2
16:23 77.5 °F 48.6 °F 29.7 in East 5.4 mph 10.7 mph 36% 0 in 644 W/m2
16:28 77.5 °F 48.6 °F 29.7 in ESE 5.4 mph 10.7 mph 36% 0 in 627 W/m2
16:33 77.5 °F 50 °F 29.7 in SE 4.5 mph 10.7 mph 38% 0 in 615 W/m2
16:38 77.5 °F 53.2 °F 29.7 in SE 6 mph 14.5 mph 43% 0 in 600 W/m2
16:43 77.9 °F 55.6 °F 29.7 in SE 9.8 mph 17.4 mph 46% 0 in 586 W/m2
16:48 76.6 °F 59.7 °F 29.7 in SE 5.4 mph 17.4 mph 56% 0 in 567 W/m2
16:53 74.5 °F 60.3 °F 29.7 in SE 9.2 mph 17.4 mph 61% 0 in 555 W/m2
16:58 73.2 °F 60.8 °F 29.7 in SE 4.5 mph 16.8 mph 65% 0 in 536 W/m2
17:03 73 °F 60.3 °F 29.7 in SE 6.9 mph 16.8 mph 64% 0 in 520 W/m2
17:09 72.9 °F 60.1 °F 29.7 in SE 6.9 mph 14.5 mph 64% 0 in 508 W/m2
17:14 73.4 °F 61 °F 29.7 in SE 4.5 mph 14.5 mph 65% 0 in 416 W/m2
17:19 73 °F 59.7 °F 29.7 in SSE 6 mph 14.5 mph 63% 0 in 339 W/m2
17:24 72.7 °F 59.4 °F 29.7 in SE 9.2 mph 13.6 mph 63% 0 in 462 W/m2
17:29 72.3 °F 59.5 °F 29.7 in SE 6 mph 13.6 mph 64% 0 in 378 W/m2
17:34 73 °F 60.3 °F 29.7 in SE 3.8 mph 11.4 mph 64% 0 in 416 W/m2
17:39 73.2 °F 59.9 °F 29.7 in SE 5.4 mph 13.6 mph 63% 0 in 424 W/m2
17:44 73.6 °F 60.3 °F 29.7 in SE 5.4 mph 13.6 mph 63% 0 in 406 W/m2
17:49 73 °F 58.8 °F 29.7 in SSE 4.5 mph 13.6 mph 61% 0 in 392 W/m2
17:54 73.2 °F 59.5 °F 29.7 in SSE 5.4 mph 13.6 mph 62% 0 in 375 W/m2
17:59 73 °F 59.4 °F 29.7 in SE 3.8 mph 13.6 mph 62% 0 in 362 W/m2
18:04 74.5 °F 59.7 °F 29.7 in SE 3.1 mph 13.6 mph 60% 0 in 351 W/m2
18:09 74.5 °F 59.2 °F 29.7 in SSE 6.9 mph 11.4 mph 59% 0 in 334 W/m2
18:14 74.3 °F 58.6 °F 29.7 in SSE 6 mph 11.4 mph 58% 0 in 325 W/m2
18:19 74.5 °F 59.2 °F 29.7 in SE 7.6 mph 11.4 mph 59% 0 in 307 W/m2
18:24 74.3 °F 59.5 °F 29.7 in SSE 4.5 mph 9.8 mph 60% 0 in 291 W/m2
18:29 73.9 °F 59.2 °F 29.7 in South 6 mph 10.7 mph 60% 0 in 282 W/m2
18:34 73.9 °F 58.6 °F 29.7 in SSE 3.8 mph 10.7 mph 59% 0 in 227 W/m2
18:39 73.9 °F 59.2 °F 29.7 in SE 3.1 mph 9.2 mph 60% 0 in 157 W/m2
18:44 73.6 °F 59.4 °F 29.7 in SSE 4.5 mph 7.6 mph 61% 0 in 181 W/m2
18:49 72.9 °F 59.2 °F 29.7 in SSE 6 mph 8.3 mph 62% 0 in 144 W/m2
18:54 71.8 °F 58.1 °F 29.7 in SSE 3.1 mph 8.3 mph 62% 0 in 135 W/m2
18:59 71.4 °F 58.6 °F 29.7 in SE 4.5 mph 8.3 mph 64% 0 in 137 W/m2
19:04 70.9 °F 58.1 °F 29.7 in SE 4.5 mph 8.3 mph 64% 0 in 138 W/m2
19:09 71.4 °F 59.2 °F 29.7 in SE 1.6 mph 10.7 mph 65% 0 in 160 W/m2
19:14 72.1 °F 58.8 °F 29.7 in SE 3.8 mph 10.7 mph 63% 0 in 183 W/m2
19:19 73.6 °F 60.3 °F 29.7 in SE 3.1 mph 6.9 mph 63% 0 in 213 W/m2
19:24 74.3 °F 60.1 °F 29.7 in SSE 3.1 mph 6.9 mph 61% 0 in 176 W/m2
19:29 74.5 °F 59.7 °F 29.7 in SE 3.8 mph 6.9 mph 60% 0 in 157 W/m2
19:34 74.8 °F 59.2 °F 29.7 in SSE 2.2 mph 4.5 mph 58% 0 in 116 W/m2
19:39 73.9 °F 57.7 °F 29.7 in ESE 1.6 mph 5.4 mph 57% 0 in 98 W/m2
19:44 73.8 °F 57.6 °F 29.7 in ESE 2.2 mph 6 mph 57% 0 in 84 W/m2
19:49 73.8 °F 57 °F 29.7 in SE 0.7 mph 6 mph 56% 0 in 113 W/m2
19:54 75.4 °F 57 °F 29.7 in SE 1.6 mph 5.4 mph 53% 0 in 103 W/m2
19:59 75.6 °F 57.7 °F 29.7 in Calm   4.5 mph 54% 0 in 89 W/m2
20:04 74.8 °F 57.6 °F 29.7 in SSE 1.6 mph 4.5 mph 55% 0 in 40 W/m2
20:09 72.5 °F 56.8 °F 29.7 in SSE 3.1 mph 6.9 mph 58% 0 in 44 W/m2
20:14 71.2 °F 57.6 °F 29.7 in SE 3.8 mph 6.9 mph 62% 0 in 35 W/m2
20:19 70.2 °F 57.4 °F 29.7 in ESE 1.6 mph 6 mph 64% 0 in 15 W/m2
20:24 69.1 °F 56.8 °F 29.7 in East 0.7 mph 5.4 mph 65% 0 in 11 W/m2
20:29 68.5 °F 56.3 °F 29.7 in Calm   5.4 mph 65% 0 in 7 W/m2
20:34 68 °F 56.7 °F 29.7 in SE 1.6 mph 3.1 mph 67% 0 in 4 W/m2
20:39 67.5 °F 57.4 °F 29.7 in ESE 2.2 mph 4.5 mph 70% 0 in 1 W/m2
20:44 67.1 °F 57.7 °F 29.7 in East 2.2 mph 9.2 mph 72% 0 in 0 W/m2
20:49 66.7 °F 57.7 °F 29.7 in East 1.6 mph 9.2 mph 73% 0 in 0 W/m2
20:54 66.7 °F 57.7 °F 29.7 in ESE 0.7 mph 6 mph 73% 0 in 0 W/m2
20:59 66.4 °F 57 °F 29.7 in South 1.6 mph 4.5 mph 72% 0 in 0 W/m2
21:04 66 °F 57.6 °F 29.7 in WNW 0.7 mph 2.2 mph 74% 0 in 0 W/m2
21:09 65.7 °F 57.6 °F 29.7 in SW 1.6 mph 3.8 mph 75% 0 in 0 W/m2
21:14 65.5 °F 57.4 °F 29.7 in South 0.7 mph 4.5 mph 75% 0 in 0 W/m2
21:19 65.3 °F 57.2 °F 29.7 in Calm   4.5 mph 75% 0 in 0 W/m2
21:24 64.9 °F 56.8 °F 29.7 in Calm   2.2 mph 75% 0 in 0 W/m2
21:29 64.6 °F 56.5 °F 29.7 in Calm     75% 0 in 0 W/m2
21:34 64.8 °F 56.7 °F 29.7 in Calm   0.7 mph 75% 0 in 0 W/m2
21:39 64.8 °F 57 °F 29.7 in Calm   2.2 mph 76% 0 in 0 W/m2
21:44 64.8 °F 57 °F 29.7 in Calm   2.2 mph 76% 0 in 0 W/m2
21:49 64.4 °F 56.7 °F 29.7 in Calm   1.6 mph 76% 0 in 0 W/m2
21:54 64.2 °F 56.5 °F 29.7 in Calm     76% 0 in 0 W/m2
21:59 63.7 °F 55.9 °F 29.7 in Calm   0.7 mph 76% 0 in 0 W/m2
22:04 63.7 °F 55.9 °F 29.7 in Calm   0.7 mph 76% 0 in 0 W/m2
22:09 63.7 °F 55.9 °F 29.7 in Calm   0.7 mph 76% 0 in 0 W/m2
22:14 63.7 °F 55.9 °F 29.7 in Calm   1.6 mph 76% 0 in 0 W/m2
22:19 63.7 °F 55.9 °F 29.7 in NW 0.7 mph 2.2 mph 76% 0 in 0 W/m2
22:24 63.5 °F 56.1 °F 29.7 in NNW 1.6 mph 3.1 mph 77% 0 in 0 W/m2
22:29 63.1 °F 56.1 °F 29.7 in Calm   3.8 mph 78% 0 in 0 W/m2
22:34 63 °F 56.5 °F 29.7 in Calm   3.8 mph 79% 0 in 0 W/m2
22:36 62.8 °F 56.5 °F 29.7 in NE 0.7 mph 3.1 mph 80% 0 in 0 W/m2
22:41 62.4 °F 56.8 °F 29.7 in Calm   2.2 mph 82% 0 in 0 W/m2
22:46 62.1 °F 56.5 °F 29.7 in NNE 0.7 mph 2.2 mph 82% 0 in 0 W/m2
22:51 61.7 °F 56.8 °F 29.7 in Calm   2.2 mph 84% 0 in 0 W/m2
23:01 61.5 °F 57 °F 29.7 in North 1.6 mph 3.1 mph 85% 0 in 0 W/m2
23:06 61.3 °F 56.8 °F 29.8 in Calm   3.1 mph 85% 0 in 0 W/m2
23:11 61 °F 56.5 °F 29.8 in Calm   3.1 mph 85% 0 in 0 W/m2
23:16 61 °F 56.5 °F 29.8 in Calm   1.6 mph 85% 0 in 0 W/m2
23:21 60.6 °F 56.5 °F 29.8 in Calm   0.7 mph 86% 0 in 0 W/m2
23:26 60.6 °F 56.5 °F 29.8 in Calm     86% 0 in 0 W/m2
23:31 60.4 °F 56.1 °F 29.8 in Calm     86% 0 in 0 W/m2
23:36 60.3 °F 56.5 °F 29.8 in Calm     87% 0 in 0 W/m2
23:41 60.1 °F 56.1 °F 29.8 in Calm     87% 0 in 0 W/m2
23:46 59.9 °F 55.9 °F 29.8 in Calm     87% 0 in 0 W/m2
23:51 59.7 °F 55.9 °F 29.8 in Calm     87% 0 in 0 W/m2
23:56 59.7 °F 56.1 °F 29.8 in Calm     88% 0 in 0 W/m2
Northern Hawkes Bay. New Zealand Historic Data
Compliments of Weather Underground - 2 mb